Time;durP1;ratioP1;P1;durP2;ratioP2;P2;SDS_P1;SDS_P2;PMS_P1;PMS_P2;Temp;Humidity;BMP_temperature;BMP_pressure;BME280_temperature;BME280_humidity;BME280_pressure;Samples;Min_cycle;Max_cycle;Signal;HPM_P1;HPM_P2
2022/03/04 00:00:27;;;;;;;17.33;12.77;;;;;;;2.42;59.35;101733.34;5178780;28;20142;-76
2022/03/04 00:02:59;;;;;;;25.83;14.68;;;;;;;2.50;58.66;101741.34;5179561;28;20035;-75
2022/03/04 00:05:30;;;;;;;19.47;11.93;;;;;;;2.40;58.77;101745.28;5183270;28;20031;-75
2022/03/04 00:08:01;;;;;;;19.90;13.27;;;;;;;2.38;59.62;101741.75;5183882;28;20030;-77
2022/03/04 00:10:34;;;;;;;22.27;14.17;;;;;;;2.33;59.65;101751.88;5183447;28;20027;-75
2022/03/04 00:13:05;;;;;;;19.48;13.77;;;;;;;2.14;59.40;101749.44;5183452;28;20479;-77
2022/03/04 00:15:37;;;;;;;22.20;14.37;;;;;;;2.13;59.99;101753.72;5183236;28;20058;-76
2022/03/04 00:18:08;;;;;;;21.23;14.30;;;;;;;2.15;59.69;101753.78;5183371;28;20026;-75
2022/03/04 00:20:39;;;;;;;18.17;12.93;;;;;;;2.07;60.23;101750.03;5183062;28;20059;-76
2022/03/04 00:23:11;;;;;;;22.27;14.13;;;;;;;2.06;61.34;101748.28;5183287;28;20042;-77
2022/03/04 00:25:42;;;;;;;22.67;13.60;;;;;;;2.10;61.07;101753.59;5182746;28;20067;-76
2022/03/04 00:28:13;;;;;;;20.83;13.37;;;;;;;1.93;61.45;101752.09;5175405;28;20046;-76
2022/03/04 00:30:45;;;;;;;23.70;14.30;;;;;;;1.97;61.28;101753.97;5162767;29;20036;-77
2022/03/04 00:33:16;;;;;;;20.87;12.33;;;;;;;1.96;61.53;101760.78;5163281;29;20031;-77
2022/03/04 00:35:48;;;;;;;19.33;13.70;;;;;;;1.93;61.80;101753.00;5162802;29;20023;-77
2022/03/04 00:38:19;;;;;;;21.90;13.33;;;;;;;1.88;61.86;101767.34;5163319;29;20023;-77
2022/03/04 00:40:50;;;;;;;23.07;13.97;;;;;;;1.89;62.11;101752.81;5162368;29;20054;-77
2022/03/04 00:43:22;;;;;;;21.30;13.97;;;;;;;1.77;62.06;101758.31;5162353;29;20031;-77
2022/03/04 00:45:54;;;;;;;22.27;15.73;;;;;;;1.77;62.62;101759.22;5162523;29;20175;-78
2022/03/04 00:48:25;;;;;;;22.25;14.65;;;;;;;1.69;62.58;101768.34;5162732;29;20027;-78
2022/03/04 00:50:57;;;;;;;19.60;14.03;;;;;;;1.69;62.49;101776.06;5162057;29;20038;-76
2022/03/04 00:53:28;;;;;;;21.93;14.53;;;;;;;1.64;63.38;101767.25;5162716;29;20016;-78
2022/03/04 00:56:00;;;;;;;20.00;14.03;;;;;;;1.66;63.48;101773.34;5162296;29;20154;-77
2022/03/04 00:58:32;;;;;;;22.97;15.13;;;;;;;1.54;63.05;101778.00;5162168;29;20035;-76
2022/03/04 01:01:05;;;;;;;26.00;14.70;;;;;;;1.45;63.59;101771.69;5161722;29;20471;-76
2022/03/04 01:03:36;;;;;;;21.13;13.88;;;;;;;1.45;63.97;101771.69;5162802;29;20387;-76
2022/03/04 01:06:08;;;;;;;21.53;14.80;;;;;;;1.39;63.70;101780.84;5162171;29;20030;-74
2022/03/04 01:08:39;;;;;;;21.73;13.37;;;;;;;1.42;63.97;101778.38;5162210;29;20475;-75
2022/03/04 01:11:10;;;;;;;20.40;14.70;;;;;;;1.32;64.36;101778.81;5162033;29;20039;-76
2022/03/04 01:13:42;;;;;;;21.03;14.93;;;;;;;1.31;64.47;101784.78;5162203;29;20479;-81
2022/03/04 01:16:13;;;;;;;20.47;13.57;;;;;;;1.22;64.91;101778.47;5161547;28;20510;-79
2022/03/04 01:18:45;;;;;;;20.93;15.20;;;;;;;1.27;65.10;101778.63;5162310;29;20035;-75
2022/03/04 01:21:16;;;;;;;21.97;15.03;;;;;;;1.26;65.33;101782.03;5161691;29;20043;-76
2022/03/04 01:23:47;;;;;;;27.00;16.17;;;;;;;1.20;65.33;101771.50;5162231;29;20102;-77
2022/03/04 01:26:19;;;;;;;24.63;15.93;;;;;;;1.13;65.46;101772.94;5161604;29;20532;-78
2022/03/04 01:28:50;;;;;;;24.20;16.03;;;;;;;1.06;65.89;101771.81;5174495;28;20137;-76
2022/03/04 01:31:22;;;;;;;25.20;15.27;;;;;;;1.06;66.35;101779.50;5181492;28;20035;-75
2022/03/04 01:33:53;;;;;;;20.70;14.60;;;;;;;0.96;65.31;101771.34;5182121;28;20031;-75
2022/03/04 01:36:25;;;;;;;21.60;15.07;;;;;;;0.93;66.22;101773.78;5181441;28;20077;-78
2022/03/04 01:38:56;;;;;;;25.80;15.83;;;;;;;0.83;66.64;101767.38;5182129;28;20072;-76
2022/03/04 01:41:27;;;;;;;23.07;15.77;;;;;;;0.78;66.71;101763.75;5181019;28;20042;-78
2022/03/04 01:43:59;;;;;;;21.10;15.83;;;;;;;0.75;67.08;101754.19;5181760;28;20033;-77
2022/03/04 01:46:30;;;;;;;23.60;15.57;;;;;;;0.76;66.85;101760.19;5181495;28;20027;-78
2022/03/04 01:49:03;;;;;;;26.73;15.70;;;;;;;0.63;67.41;101754.56;5180869;28;20089;-78
2022/03/04 01:51:35;;;;;;;24.13;15.38;;;;;;;0.60;67.42;101758.69;5164636;28;20066;-76
2022/03/04 01:54:06;;;;;;;27.13;16.43;;;;;;;0.60;67.68;101758.69;5181415;28;20479;-74
2022/03/04 01:56:37;;;;;;;21.93;15.77;;;;;;;0.54;67.46;101754.16;5184906;28;20489;-75
2022/03/04 01:59:09;;;;;;;21.40;15.40;;;;;;;0.42;67.26;101751.03;5189548;28;20083;-75
2022/03/04 02:01:40;;;;;;;23.93;16.37;;;;;;;0.42;67.96;101753.59;5182806;28;20041;-77
2022/03/04 02:04:12;;;;;;;22.40;16.23;;;;;;;0.39;68.05;101756.03;5180722;28;20050;-76
2022/03/04 02:06:43;;;;;;;24.03;16.47;;;;;;;0.22;67.81;101761.28;5182089;28;20031;-76
2022/03/04 02:09:15;;;;;;;22.73;16.60;;;;;;;0.20;68.39;101768.03;5180862;28;20031;-75
2022/03/04 02:11:48;;;;;;;22.23;16.00;;;;;;;0.16;68.92;101766.13;5181326;28;20031;-77
2022/03/04 02:14:19;;;;;;;26.25;17.20;;;;;;;0.09;69.38;101769.25;5180652;28;20131;-75
2022/03/04 02:16:53;;;;;;;28.53;16.80;;;;;;;-0.03;69.11;101762.75;5181197;28;20027;-75
2022/03/04 02:19:24;;;;;;;21.70;15.70;;;;;;;-0.01;69.28;101773.94;5180829;28;20062;-77
2022/03/04 02:21:58;;;;;;;23.97;16.17;;;;;;;-0.03;69.54;101764.44;5181320;28;20053;-76
2022/03/04 02:24:31;;;;;;;23.02;16.67;;;;;;;-0.07;69.86;101759.97;5181332;28;20062;-75
2022/03/04 02:27:03;;;;;;;25.63;16.88;;;;;;;-0.10;70.08;101768.38;5182157;28;20026;-76
2022/03/04 02:29:35;;;;;;;24.67;16.53;;;;;;;-0.15;70.02;101753.63;5182049;28;20590;-76
2022/03/04 02:32:06;;;;;;;25.43;16.87;;;;;;;-0.30;69.82;101757.22;5164898;28;20053;-77
2022/03/04 02:34:38;;;;;;;26.77;17.20;;;;;;;-0.29;70.54;101753.84;5181792;28;20030;-78
2022/03/04 02:37:09;;;;;;;25.77;17.43;;;;;;;-0.29;70.44;101752.94;5181724;28;20042;-76
2022/03/04 02:39:41;;;;;;;24.00;16.97;;;;;;;-0.42;70.81;101744.72;5180417;28;20034;-77
2022/03/04 02:42:13;;;;;;;26.27;16.80;;;;;;;-0.38;71.54;101741.47;5180897;28;20034;-78
2022/03/04 02:44:44;;;;;;;27.00;17.53;;;;;;;-0.48;71.25;101739.28;5180318;28;20031;-78
2022/03/04 02:47:15;;;;;;;28.37;18.57;;;;;;;-0.43;71.34;101750.63;5181078;28;20031;-76
2022/03/04 02:49:47;;;;;;;27.90;18.07;;;;;;;-0.50;70.92;101745.13;5180394;28;20043;-78
2022/03/04 02:52:18;;;;;;;31.33;18.83;;;;;;;-0.50;71.37;101737.44;5180325;28;20101;-78
2022/03/04 02:54:49;;;;;;;29.73;18.00;;;;;;;-0.57;71.49;101743.97;5180226;28;20509;-75
2022/03/04 02:57:21;;;;;;;24.97;17.97;;;;;;;-0.62;71.74;101742.88;5180259;28;20053;-78
2022/03/04 02:59:52;;;;;;;24.23;17.37;;;;;;;-0.69;71.75;101739.16;5179905;28;20035;-78
2022/03/04 03:02:23;;;;;;;27.93;17.57;;;;;;;-0.72;72.23;101744.13;5162290;28;20054;-77
2022/03/04 03:04:55;;;;;;;24.10;16.70;;;;;;;-0.70;72.69;101746.75;5180517;28;20520;-78
2022/03/04 03:07:26;;;;;;;30.00;19.00;;;;;;;-0.67;72.48;101745.22;5179979;28;20113;-75
2022/03/04 03:09:58;;;;;;;23.30;18.07;;;;;;;-0.68;73.05;101748.56;5180460;28;20031;-76
2022/03/04 03:12:29;;;;;;;29.43;18.07;;;;;;;-0.75;72.56;101747.38;5179851;28;20113;-78
2022/03/04 03:15:00;;;;;;;27.70;17.40;;;;;;;-0.87;72.87;101743.34;5179746;28;20031;-77
2022/03/04 03:17:32;;;;;;;23.93;17.30;;;;;;;-0.83;73.23;101743.56;5180012;28;20102;-77
2022/03/04 03:20:06;;;;;;;27.43;18.33;;;;;;;-0.89;73.32;101733.03;5179805;28;20053;-78
2022/03/04 03:22:37;;;;;;;29.42;17.90;;;;;;;-0.97;73.33;101742.88;5180402;28;20109;-75
2022/03/04 03:25:09;;;;;;;26.03;17.57;;;;;;;-0.93;73.80;101737.13;5179984;28;20101;-78
2022/03/04 03:27:41;;;;;;;28.38;18.15;;;;;;;-0.98;74.09;101737.72;5179700;28;20086;-75
2022/03/04 03:30:13;;;;;;;25.40;18.33;;;;;;;-1.01;74.27;101737.56;5179555;28;20046;-77
2022/03/04 03:32:44;;;;;;;27.92;18.27;;;;;;;-1.02;73.83;101743.47;5179702;28;20041;-76
2022/03/04 03:35:15;;;;;;;28.53;17.67;;;;;;;-1.00;74.33;101741.88;5179436;28;20045;-77
2022/03/04 03:37:47;;;;;;;28.23;19.13;;;;;;;-1.03;74.49;101754.50;5179124;28;20095;-77
2022/03/04 03:40:18;;;;;;;25.43;17.63;;;;;;;-1.06;74.28;101752.69;5179163;28;20037;-78
2022/03/04 03:42:50;;;;;;;28.70;18.77;;;;;;;-1.09;74.93;101747.41;5179842;28;20494;-76
2022/03/04 03:45:21;;;;;;;27.30;19.27;;;;;;;-1.12;75.27;101758.34;5179423;28;20029;-76
2022/03/04 03:47:54;;;;;;;28.90;19.63;;;;;;;-1.15;75.58;101757.34;5179519;28;20037;-74
2022/03/04 03:50:25;;;;;;;32.40;18.17;;;;;;;-1.21;75.37;101747.66;5179286;28;20093;-76
2022/03/04 03:52:56;;;;;;;29.30;19.33;;;;;;;-1.27;75.69;101751.59;5179540;28;20110;-76
2022/03/04 03:55:28;;;;;;;29.30;18.13;;;;;;;-1.29;75.71;101748.94;5179410;28;20027;-78
2022/03/04 03:57:59;;;;;;;26.93;18.33;;;;;;;-1.32;75.94;101749.69;5179965;28;20037;-75
2022/03/04 04:00:31;;;;;;;27.17;18.60;;;;;;;-1.35;76.58;101743.56;5179124;28;20041;-73
2022/03/04 04:03:02;;;;;;;27.13;19.10;;;;;;;-1.38;76.23;101753.63;5178875;28;20113;-75
2022/03/04 04:05:33;;;;;;;31.03;18.53;;;;;;;-1.38;76.62;101758.72;5179567;28;20081;-75
2022/03/04 04:08:05;;;;;;;25.30;17.47;;;;;;;-1.43;76.63;101755.94;5177916;28;20047;-77
2022/03/04 04:10:37;;;;;;;28.50;19.37;;;;;;;-1.36;76.58;101765.66;5179807;28;20074;-76
2022/03/04 04:13:08;;;;;;;31.17;19.97;;;;;;;-1.39;76.44;101754.41;5179088;28;20023;-77
2022/03/04 04:15:39;;;;;;;24.70;18.53;;;;;;;-1.39;76.99;101759.53;5162154;28;20037;-78
2022/03/04 04:18:11;;;;;;;30.43;20.40;;;;;;;-1.38;76.84;101766.41;5178723;28;20023;-78
2022/03/04 04:20:42;;;;;;;28.67;18.97;;;;;;;-1.40;77.29;101770.53;5179385;28;20038;-75
2022/03/04 04:23:13;;;;;;;26.17;18.97;;;;;;;-1.40;76.84;101771.44;5178890;28;20422;-75
2022/03/04 04:25:45;;;;;;;44.33;30.90;;;;;;;-1.40;77.11;101770.53;5179374;28;20159;-75
2022/03/04 04:28:17;;;;;;;28.70;21.10;;;;;;;-1.44;77.25;101772.06;5178861;28;20051;-76
2022/03/04 04:30:49;;;;;;;;;;;;;;;-1.47;76.30;101772.78;5179644;28;20027;-76
2022/03/04 04:33:20;;;;;;;30.45;19.95;;;;;;;-1.45;76.84;101761.75;5178551;28;20058;-77
2022/03/04 04:35:51;;;;;;;32.87;22.93;;;;;;;-1.43;77.13;101780.59;5179346;28;20475;-78
2022/03/04 04:38:23;;;;;;;26.67;18.17;;;;;;;-1.42;77.26;101780.69;5178931;28;20102;-76
2022/03/04 04:40:54;;;;;;;31.10;19.87;;;;;;;-1.38;77.02;101779.19;5179164;28;20236;-74
2022/03/04 04:43:25;;;;;;;34.67;24.43;;;;;;;-1.44;77.26;101783.97;5178629;28;20030;-77
2022/03/04 04:45:57;;;;;;;32.73;21.83;;;;;;;-1.47;77.77;101784.69;5178137;28;20034;-74
2022/03/04 04:48:29;;;;;;;29.93;22.13;;;;;;;-1.47;77.75;101782.13;5186915;28;20035;-77
2022/03/04 04:51:00;;;;;;;29.47;21.60;;;;;;;-1.51;77.80;101783.66;5186571;28;20145;-77
2022/03/04 04:53:32;;;;;;;39.03;24.47;;;;;;;-1.55;77.68;101785.97;5183030;28;20390;-77
2022/03/04 04:56:04;;;;;;;32.90;20.87;;;;;;;-1.63;78.15;101785.56;5182500;28;20149;-74
2022/03/04 04:58:36;;;;;;;33.28;22.33;;;;;;;-1.55;78.23;101781.72;5182816;28;20031;-76
2022/03/04 05:01:07;;;;;;;31.60;21.03;;;;;;;-1.59;77.90;101781.50;5182352;28;20038;-77
2022/03/04 05:03:38;;;;;;;31.03;20.90;;;;;;;-1.63;78.07;101783.00;5182624;28;20029;-77
2022/03/04 05:06:10;;;;;;;32.37;20.00;;;;;;;-1.65;78.38;101776.94;5182553;28;20127;-76
2022/03/04 05:08:41;;;;;;;31.33;20.57;;;;;;;-1.71;78.36;101774.91;5182502;28;20502;-78
2022/03/04 05:11:13;;;;;;;35.37;20.00;;;;;;;-1.69;78.62;101777.56;5182957;28;20039;-76
2022/03/04 05:13:44;;;;;;;32.43;20.90;;;;;;;-1.70;78.65;101774.13;5182692;28;20035;-77
2022/03/04 05:16:15;;;;;;;30.70;21.50;;;;;;;-1.70;78.95;101776.69;5182417;28;20106;-75
2022/03/04 05:18:47;;;;;;;29.07;20.10;;;;;;;-1.76;78.91;101770.38;5182358;28;20045;-76
2022/03/04 05:21:18;;;;;;;33.50;22.13;;;;;;;-1.77;78.76;101773.72;5181685;28;20062;-75
2022/03/04 05:23:59;;;;;;;35.83;21.33;;;;;;;-1.77;79.32;101774.63;5182411;28;20038;-75
2022/03/04 05:26:31;;;;;;;35.30;21.17;;;;;;;-1.82;79.48;101770.91;5181733;28;20023;-74
2022/03/04 05:29:05;;;;;;;30.02;19.67;;;;;;;-1.81;79.13;101774.38;5171788;28;20047;-78
2022/03/04 05:31:38;;;;;;;30.52;20.70;;;;;;;-1.83;79.31;101780.28;5160111;29;20151;-76
2022/03/04 05:34:10;;;;;;;33.50;22.38;;;;;;;-1.86;79.78;101775.00;5161991;29;20038;-76
2022/03/04 05:36:41;;;;;;;33.40;21.27;;;;;;;-1.93;79.64;101780.59;5160073;29;20024;-76
2022/03/04 05:39:13;;;;;;;33.37;21.63;;;;;;;-1.92;79.73;101784.00;5161989;29;20461;-76
2022/03/04 05:41:44;;;;;;;34.60;21.97;;;;;;;-1.94;79.93;101786.47;5161499;29;20020;-76
2022/03/04 05:44:15;;;;;;;62.73;36.97;;;;;;;-1.94;80.02;101786.47;5161853;29;20035;-75
2022/03/04 05:46:47;;;;;;;37.47;24.93;;;;;;;-1.96;80.05;101782.97;5161378;29;20068;-75
2022/03/04 05:49:18;;;;;;;49.30;30.07;;;;;;;-1.96;79.85;101794.88;5161864;29;20411;-76
2022/03/04 05:51:50;;;;;;;36.73;22.23;;;;;;;-1.94;80.10;101798.38;5161194;29;20109;-76
2022/03/04 05:54:22;;;;;;;55.47;32.70;;;;;;;-1.99;80.31;101799.81;5161531;29;20051;-76
2022/03/04 05:56:53;;;;;;;33.83;23.73;;;;;;;-1.99;79.91;101803.25;5160728;29;20126;-75
2022/03/04 05:59:25;;;;;;;56.83;35.47;;;;;;;-2.03;80.27;101804.75;5161258;29;20035;-77
2022/03/04 06:01:56;;;;;;;55.03;32.13;;;;;;;-2.03;80.44;101808.97;5160442;28;20479;-75
2022/03/04 06:04:28;;;;;;;66.07;43.67;;;;;;;-2.03;80.37;101809.88;5161577;29;20110;-75
2022/03/04 06:06:59;;;;;;;42.30;24.53;;;;;;;-2.09;81.09;101813.78;5161072;29;20027;-76
2022/03/04 06:09:32;;;;;;;33.60;21.97;;;;;;;-2.03;80.81;101821.75;5161162;29;20031;-74
2022/03/04 06:12:04;;;;;;;31.50;21.13;;;;;;;-2.03;80.12;101820.09;5161460;29;20035;-75
2022/03/04 06:14:35;;;;;;;30.73;20.77;;;;;;;-2.00;80.78;101818.50;5161057;29;20038;-77
2022/03/04 06:17:07;;;;;;;37.37;22.47;;;;;;;-2.04;80.94;101822.56;5160840;29;20475;-75
2022/03/04 06:19:39;;;;;;;32.87;23.87;;;;;;;-2.02;81.08;101818.41;5160763;29;20512;-76
2022/03/04 06:22:11;;;;;;;37.08;24.15;;;;;;;-2.02;81.35;101828.63;5160392;29;20136;-76
2022/03/04 06:24:42;;;;;;;38.03;23.10;;;;;;;-2.06;81.25;101826.69;5160974;29;20184;-76
2022/03/04 06:27:14;;;;;;;37.73;23.53;;;;;;;-2.10;80.98;101832.44;5160824;29;20114;-75
2022/03/04 06:29:45;;;;;;;35.33;22.33;;;;;;;-2.06;81.40;101832.69;5159175;28;20047;-75
2022/03/04 06:32:16;;;;;;;32.97;21.80;;;;;;;-2.05;81.33;101833.56;5160421;29;20033;-75
2022/03/04 06:34:48;;;;;;;34.07;23.40;;;;;;;-2.06;81.65;101827.59;5160327;29;20023;-76
2022/03/04 06:37:19;;;;;;;30.67;20.83;;;;;;;-2.07;81.67;101833.47;5160143;29;20030;-76
2022/03/04 06:39:51;;;;;;;36.57;23.20;;;;;;;-2.04;81.66;101831.09;5160385;29;20028;-75
2022/03/04 06:42:22;;;;;;;33.87;23.23;;;;;;;-2.00;81.82;101836.38;5160317;29;20027;-77
2022/03/04 06:44:53;;;;;;;36.40;22.90;;;;;;;-2.00;81.23;101834.69;5160797;29;20055;-76
2022/03/04 06:47:25;;;;;;;37.43;23.60;;;;;;;-1.94;81.80;101847.81;5160152;29;20027;-75
2022/03/04 06:49:56;;;;;;;39.53;25.03;;;;;;;-1.90;81.59;101844.66;5160205;29;20046;-76
2022/03/04 06:52:28;;;;;;;38.97;26.20;;;;;;;-1.88;81.96;101842.16;5159750;29;20031;-76
2022/03/04 06:54:59;;;;;;;35.40;21.67;;;;;;;-1.82;81.66;101845.03;5160362;29;20383;-74
2022/03/04 06:57:31;;;;;;;33.07;22.53;;;;;;;-1.77;81.59;101851.31;5160257;29;20085;-76
2022/03/04 07:00:07;;;;;;;35.83;22.67;;;;;;;-1.73;81.83;101860.88;5142687;29;20039;-76
2022/03/04 07:02:39;;;;;;;31.83;21.05;;;;;;;-1.71;81.25;101863.53;5159999;29;20084;-77
2022/03/04 07:05:10;;;;;;;33.73;23.20;;;;;;;-1.64;81.22;101860.53;5160067;29;20123;-76
2022/03/04 07:07:42;;;;;;;31.43;22.13;;;;;;;-1.61;81.37;101872.56;5159742;29;20019;-75
2022/03/04 07:10:13;;;;;;;33.70;20.83;;;;;;;-1.54;81.35;101860.22;5160069;29;20024;-76
2022/03/04 07:12:45;;;;;;;32.10;20.13;;;;;;;-1.48;81.00;101872.47;5159097;28;20562;-76
2022/03/04 07:15:18;;;;;;;35.33;21.77;;;;;;;-1.38;80.66;101879.81;5159982;29;20175;-77
2022/03/04 07:17:49;;;;;;;43.35;22.25;;;;;;;-1.29;80.27;101888.00;5160077;29;20390;-77
2022/03/04 07:20:21;;;;;;;45.93;22.97;;;;;;;-1.22;80.35;101885.72;5159847;29;20032;-74
2022/03/04 07:22:52;;;;;;;33.67;21.83;;;;;;;-1.10;80.11;101891.50;5159656;29;20038;-74
2022/03/04 07:25:23;;;;;;;35.50;22.80;;;;;;;-0.99;79.45;101892.94;5159626;29;20066;-74
2022/03/04 07:27:55;;;;;;;37.90;21.63;;;;;;;-0.88;79.01;101885.81;5160840;28;20027;-75
2022/03/04 07:30:26;;;;;;;31.03;21.20;;;;;;;-0.75;78.18;101888.22;5179956;28;20034;-76
2022/03/04 07:32:58;;;;;;;46.37;23.43;;;;;;;-0.63;77.87;101894.75;5179596;28;20035;-76
2022/03/04 07:35:30;;;;;;;33.90;21.20;;;;;;;-0.48;76.95;101890.41;5179718;28;20033;-77
2022/03/04 07:38:02;;;;;;;35.07;21.40;;;;;;;-0.41;77.13;101887.34;5179745;28;20023;-77
2022/03/04 07:40:33;;;;;;;32.13;20.83;;;;;;;-0.28;76.84;101887.97;5188485;28;20051;-74
2022/03/04 07:43:05;;;;;;;34.93;21.20;;;;;;;-0.19;76.54;101891.84;5186033;28;20070;-76
2022/03/04 07:45:37;;;;;;;32.40;23.53;;;;;;;-0.09;76.16;101885.47;5181078;28;20027;-74
2022/03/04 07:48:09;;;;;;;;;;;;;;;-0.06;76.02;101883.06;5181406;28;20050;-75
2022/03/04 07:50:40;;;;;;;34.33;19.98;;;;;;;0.13;75.40;101882.28;5180508;28;20400;-76
2022/03/04 07:53:12;;;;;;;35.80;21.27;;;;;;;0.30;74.83;101883.06;5180439;28;20094;-74
2022/03/04 07:55:44;;;;;;;33.33;21.07;;;;;;;0.45;74.44;101893.16;5179575;28;20121;-74
2022/03/04 07:58:15;;;;;;;30.93;20.40;;;;;;;0.57;73.33;101890.28;5180585;28;20019;-74
2022/03/04 08:00:47;;;;;;;33.27;22.23;;;;;;;0.70;72.62;101892.59;5179303;28;20101;-74
2022/03/04 08:03:18;;;;;;;33.27;19.63;;;;;;;0.85;71.99;101891.53;5179509;28;20038;-74
2022/03/04 08:05:50;;;;;;;27.50;19.17;;;;;;;1.01;70.93;101898.22;5179477;28;20047;-75
2022/03/04 08:08:21;;;;;;;31.23;20.03;;;;;;;1.13;70.96;101901.34;5179548;28;20023;-75
2022/03/04 08:10:54;;;;;;;30.57;20.57;;;;;;;1.26;69.45;101897.59;5179155;28;20109;-76
2022/03/04 08:13:25;;;;;;;;;;;;;;;1.32;70.29;101890.16;5179730;28;20385;-75
2022/03/04 08:15:58;;;;;;;33.30;19.05;;;;;;;1.53;68.70;101897.00;5179360;28;19956;-75
2022/03/04 08:18:29;;;;;;;;;;;;;;;1.59;68.91;101900.72;5179680;28;20039;-75
2022/03/04 08:21:00;;;;;;;30.50;19.58;;;;;;;1.76;66.76;101901.44;5177929;28;19921;-76
2022/03/04 08:23:32;;;;;;;30.17;19.43;;;;;;;1.86;66.77;101899.25;5179218;28;20023;-75
2022/03/04 08:26:04;;;;;;;28.20;18.60;;;;;;;2.01;66.46;101907.56;5164918;28;20029;-75
2022/03/04 08:28:35;;;;;;;33.70;20.70;;;;;;;2.32;66.73;101901.09;5183267;28;20053;-76
2022/03/04 08:31:12;;;;;;;29.93;19.27;;;;;;;2.47;65.06;101904.22;5183388;28;20305;-74
2022/03/04 08:33:45;;;;;;;28.42;19.00;;;;;;;2.72;64.01;101903.47;5183305;28;20019;-74
2022/03/04 08:36:16;;;;;;;32.75;20.45;;;;;;;3.00;63.99;101906.19;5182944;28;20026;-74
2022/03/04 08:38:47;;;;;;;29.40;19.00;;;;;;;3.31;63.29;101913.28;5183091;28;20034;-75
2022/03/04 08:41:19;;;;;;;32.73;19.90;;;;;;;3.59;62.01;101916.81;5183031;28;20135;-75
2022/03/04 08:43:51;;;;;;;26.97;19.43;;;;;;;3.83;60.97;101914.19;5181545;28;20101;-75
2022/03/04 08:46:23;;;;;;;30.17;18.53;;;;;;;4.11;60.20;101912.53;5182866;28;20078;-76
2022/03/04 08:48:54;;;;;;;25.57;17.17;;;;;;;4.40;59.86;101908.25;5182718;28;20318;-75
2022/03/04 08:51:27;;;;;;;25.70;17.53;;;;;;;4.71;57.40;101922.09;5182620;28;20022;-77
2022/03/04 08:53:58;;;;;;;;;;;;;;;5.05;60.97;101923.94;5183261;28;20049;-76
2022/03/04 08:56:30;;;;;;;27.55;18.55;;;;;;;5.04;55.15;101917.03;5181719;28;19910;-76
2022/03/04 08:59:02;;;;;;;25.57;17.80;;;;;;;5.27;55.39;101922.81;5182853;28;20070;-76
2022/03/04 09:01:33;;;;;;;29.05;17.23;;;;;;;5.56;54.33;101930.50;5182547;28;20045;-76
2022/03/04 09:04:05;;;;;;;27.50;18.33;;;;;;;5.87;54.36;101923.50;5182622;28;20031;-75
2022/03/04 09:06:36;;;;;;;26.33;17.57;;;;;;;6.01;52.29;101927.34;5182578;28;20034;-76
2022/03/04 09:09:07;;;;;;;24.20;17.80;;;;;;;6.34;51.86;101922.94;5182571;28;20078;-74
2022/03/04 09:11:39;;;;;;;24.47;18.10;;;;;;;6.51;50.39;101931.97;5182359;28;20506;-77
2022/03/04 09:14:10;;;;;;;25.43;18.30;;;;;;;6.67;50.52;101927.13;5182327;28;20073;-75
2022/03/04 09:16:42;;;;;;;25.53;18.37;;;;;;;6.70;48.92;101927.19;5182071;28;20105;-76
2022/03/04 09:19:13;;;;;;;24.20;18.27;;;;;;;7.08;49.43;101922.81;5182239;28;20030;-75
2022/03/04 09:21:47;;;;;;;25.40;17.53;;;;;;;7.26;47.43;101922.28;5182065;28;20026;-74
2022/03/04 09:24:18;;;;;;;25.95;17.85;;;;;;;7.34;47.09;101911.16;5182113;28;20114;-75
2022/03/04 09:26:50;;;;;;;23.03;17.23;;;;;;;7.70;46.44;101907.50;5181697;28;20101;-75
2022/03/04 09:29:21;;;;;;;27.13;17.33;;;;;;;7.99;45.47;101910.56;5181855;28;20438;-76
2022/03/04 09:31:53;;;;;;;23.17;16.80;;;;;;;8.20;44.89;101916.09;5182162;28;20038;-76
2022/03/04 09:34:24;;;;;;;24.37;17.73;;;;;;;8.40;44.11;101911.19;5182087;28;20435;-75
2022/03/04 09:36:55;;;;;;;23.77;17.93;;;;;;;8.67;43.82;101909.84;5181979;28;20030;-75
2022/03/04 09:39:27;;;;;;;23.87;17.67;;;;;;;8.62;43.09;101903.72;5181664;28;20363;-75
2022/03/04 09:41:58;;;;;;;24.23;18.70;;;;;;;8.62;43.81;101893.31;5181535;28;20046;-77
2022/03/04 09:44:29;;;;;;;24.53;18.37;;;;;;;8.93;44.12;101901.50;5181773;28;20102;-76
2022/03/04 09:47:01;;;;;;;24.73;17.67;;;;;;;9.37;42.75;101900.25;5181709;28;20113;-77
2022/03/04 09:49:35;;;;;;;26.30;18.70;;;;;;;9.61;42.74;101902.22;5181680;28;20038;-75
2022/03/04 09:52:08;;;;;;;21.95;17.42;;;;;;;9.82;42.05;101904.13;5181563;28;20031;-76
2022/03/04 09:54:40;;;;;;;23.02;18.15;;;;;;;9.88;41.23;101905.91;5181430;28;20027;-76
2022/03/04 09:57:11;;;;;;;22.87;18.23;;;;;;;10.31;40.28;101907.09;5181620;28;20524;-76
2022/03/04 09:59:43;;;;;;;23.37;17.67;;;;;;;10.82;40.44;101904.81;5181058;28;20094;-75
2022/03/04 10:02:15;;;;;;;23.77;18.42;;;;;;;10.95;39.43;101900.50;5181507;28;20066;-75
2022/03/04 10:04:57;;;;;;;24.77;17.40;;;;;;;11.35;39.40;101895.38;5181687;28;20024;-76
2022/03/04 10:07:38;;;;;;;24.35;19.15;;;;;;;11.90;39.34;101910.22;5181616;28;20114;-74
2022/03/04 10:10:17;;;;;;;23.13;17.77;;;;;;;11.94;36.75;101898.06;5181538;28;20031;-74
2022/03/04 10:12:57;;;;;;;19.85;17.23;;;;;;;12.42;37.39;101904.09;5181085;28;20490;-75
2022/03/04 10:15:29;;;;;;;24.42;16.80;;;;;;;12.17;36.25;101898.03;5181193;28;20043;-75
2022/03/04 10:18:05;;;;;;;25.90;17.63;;;;;;;12.32;36.74;101899.75;5181367;28;20086;-75
2022/03/04 10:20:43;;;;;;;21.77;17.83;;;;;;;12.94;35.37;101911.75;5181125;28;20038;-75
2022/03/04 10:23:24;;;;;;;21.98;17.77;;;;;;;12.65;35.49;101906.63;5180810;28;20046;-76
2022/03/04 10:25:58;;;;;;;21.55;16.55;;;;;;;13.23;34.16;101920.31;5180639;28;20106;-75
2022/03/04 10:28:32;;;;;;;20.25;17.17;;;;;;;13.44;32.94;101922.88;5180649;28;20093;-75
2022/03/04 10:31:07;;;;;;;21.75;16.75;;;;;;;13.80;33.29;101923.47;5181353;28;20027;-76
2022/03/04 10:33:39;;;;;;;19.67;16.90;;;;;;;13.62;32.25;101918.34;5183358;28;20031;-75
2022/03/04 10:36:14;;;;;;;21.63;17.23;;;;;;;14.07;32.16;101918.00;5196550;28;20050;-74
2022/03/04 10:39:08;;;;;;;24.67;18.33;;;;;;;14.50;31.49;101921.03;5189918;28;20031;-75
2022/03/04 10:41:49;;;;;;;19.60;17.23;;;;;;;14.85;32.61;101909.31;5182545;28;20506;-76
2022/03/04 10:44:27;;;;;;;22.27;17.65;;;;;;;14.26;31.36;101911.69;5180668;28;20041;-75
2022/03/04 10:46:58;;;;;;;21.38;16.40;;;;;;;14.69;30.01;101908.63;5180189;28;20094;-75
2022/03/04 10:49:30;;;;;;;22.70;17.73;;;;;;;15.13;29.92;101907.19;5180564;28;20027;-74
2022/03/04 10:52:06;;;;;;;20.95;16.45;;;;;;;15.44;29.71;101914.63;5180449;28;20309;-75
2022/03/04 10:54:38;;;;;;;20.08;17.15;;;;;;;15.69;28.92;101907.22;5180584;28;20065;-75
2022/03/04 10:57:09;;;;;;;20.67;16.97;;;;;;;16.35;28.67;101901.72;5180527;28;20062;-77
2022/03/04 10:59:55;;;;;;;22.80;16.57;;;;;;;16.43;29.16;101906.84;5179987;28;20055;-76
2022/03/04 11:02:43;;;;;;;23.08;16.88;;;;;;;17.31;29.06;101904.13;5180409;28;20110;-78
2022/03/04 11:05:16;;;;;;;27.23;17.25;;;;;;;17.13;27.37;101897.50;5180280;28;20034;-77
2022/03/04 11:07:48;;;;;;;19.05;17.00;;;;;;;17.34;26.72;101900.56;5180226;28;20023;-77
2022/03/04 11:10:20;;;;;;;21.48;16.92;;;;;;;17.91;26.49;101898.34;5180364;28;20435;-76
2022/03/04 11:12:53;;;;;;;21.70;17.42;;;;;;;17.70;25.22;101908.47;5180455;28;20501;-77
2022/03/04 11:15:25;;;;;;;21.58;17.52;;;;;;;18.16;25.38;101907.34;5180026;28;20388;-77
2022/03/04 11:17:57;;;;;;;20.67;16.73;;;;;;;18.65;24.01;101889.25;5180076;28;20110;-76
2022/03/04 11:20:29;;;;;;;19.70;16.42;;;;;;;18.75;24.21;101884.56;5180284;28;20534;-76
2022/03/04 11:23:01;;;;;;;24.73;17.63;;;;;;;19.31;24.08;101879.34;5180149;28;20113;-76
2022/03/04 11:25:41;;;;;;;19.47;17.40;;;;;;;19.43;23.68;101882.50;5180257;28;20030;-77
2022/03/04 11:28:18;;;;;;;21.52;15.73;;;;;;;19.14;23.39;101884.31;5179867;28;20385;-75
2022/03/04 11:30:54;;;;;;;19.05;15.85;;;;;;;19.07;23.19;101870.41;5178217;28;20027;-75
2022/03/04 11:33:28;;;;;;;19.05;16.65;;;;;;;19.75;23.72;101875.28;5179793;28;20031;-78
2022/03/04 11:36:04;;;;;;;19.00;16.92;;;;;;;19.27;22.75;101874.22;5179476;28;20446;-76